00MI weather

Public forecast

Using degrees Fahrenheit for public forecast. Weather courtesy of forecast.io.

Closest aviation weather report (METAR) to Dow Chemical Heliport

Closest report is Mason County Airport, 0.9 nm (1.6 km) NNE. Retrieved 2020/08/14 05:35 UTC (3 minutes ago):

KLDM 140535Z AUTO 00000KT 2SM BR CLR 18/18 A3009 RMK AO2 VIS 1/2V5 T01780175

Closest aviation forecast (TAF) to Dow Chemical Heliport

Closest forecast is Manistee Co Blacker Airport, 20.7 nm (38.4 km) NNE. Retrieved 2020-08-14 00:21 UTC (5 hours ago):

TAF KMBL 132320Z 1400/1424 VRB03KT P6SM SCT060